createdAt,value
2022-11-28T00:04:42.746Z,101305.34
2022-11-28T00:09:45.773Z,101305.16
2022-11-28T00:14:48.581Z,101305.11
2022-11-28T00:19:51.485Z,101305.95
2022-11-28T00:24:54.286Z,101301.67
2022-11-28T00:29:57.135Z,101300.19
2022-11-28T00:34:59.887Z,101302.46
2022-11-28T00:40:02.688Z,101293.33
2022-11-28T00:45:05.868Z,101290.75
2022-11-28T00:50:08.901Z,101285.59
2022-11-28T00:55:11.625Z,101283.52
2022-11-28T01:00:15.294Z,101289.49
2022-11-28T01:05:18.156Z,101293.44
2022-11-28T01:10:21.131Z,101289.08
2022-11-28T01:15:24.014Z,101285.59
2022-11-28T01:20:26.727Z,101283.98
2022-11-28T01:25:29.734Z,101278.64
2022-11-28T01:30:33.654Z,101260.50
2022-11-28T01:35:36.381Z,101254.70
2022-11-28T01:40:46.019Z,101259.15
2022-11-28T01:45:49.227Z,101252.57
2022-11-28T01:50:56.004Z,101248.80
2022-11-28T01:56:06.502Z,101244.64
2022-11-28T02:01:10.611Z,101237.00
2022-11-28T02:06:16.398Z,101234.91
2022-11-28T02:11:56.783Z,101230.25
2022-11-28T02:17:19.861Z,101223.02
2022-11-28T02:23:03.619Z,101221.46
2022-11-28T02:28:25.160Z,101227.02
2022-11-28T02:33:35.935Z,101220.95
2022-11-28T02:38:57.487Z,101213.71
2022-11-28T02:44:11.449Z,101213.49
2022-11-28T02:49:29.833Z,101207.73
2022-11-28T02:54:33.120Z,101198.02
2022-11-28T02:59:38.496Z,101192.30
2022-11-28T03:05:13.989Z,101190.34
2022-11-28T03:10:40.307Z,101188.38
2022-11-28T03:15:55.147Z,101180.77
2022-11-28T03:21:05.875Z,101179.84
2022-11-28T03:26:18.811Z,101189.16
2022-11-28T03:31:29.762Z,101194.88
2022-11-28T03:36:40.491Z,101194.33
2022-11-28T03:42:03.986Z,101193.13
2022-11-28T03:47:07.207Z,101196.73
2022-11-28T03:52:18.699Z,101199.13
2022-11-28T03:57:35.728Z,101206.83
2022-11-28T04:03:07.541Z,101211.77
2022-11-28T04:08:16.555Z,101198.64
2022-11-28T04:13:26.635Z,101205.34
2022-11-28T04:19:01.885Z,101209.92
2022-11-28T04:24:12.137Z,101203.33
2022-11-28T04:29:18.397Z,101198.99
2022-11-28T04:34:23.187Z,101195.49
2022-11-28T04:39:28.314Z,101193.09
2022-11-28T04:44:40.991Z,101193.11
2022-11-28T04:49:44.167Z,101180.02
2022-11-28T04:55:10.178Z,101185.02
2022-11-28T05:00:16.151Z,101191.52
2022-11-28T05:05:25.471Z,101193.92
2022-11-28T05:10:28.686Z,101192.59
2022-11-28T05:15:31.668Z,101189.61
2022-11-28T05:20:35.011Z,101194.52
2022-11-28T05:25:38.817Z,101198.62
2022-11-28T05:30:41.606Z,101202.95
2022-11-28T05:35:44.409Z,101201.58
2022-11-28T05:40:47.136Z,101197.47
2022-11-28T05:45:49.890Z,101193.89
2022-11-28T05:50:52.911Z,101188.86
2022-11-28T05:55:55.701Z,101192.79
2022-11-28T06:00:58.579Z,101199.59
2022-11-28T06:06:01.333Z,101205.02
2022-11-28T06:11:04.116Z,101200.69
2022-11-28T06:16:10.533Z,101199.25
2022-11-28T06:21:15.370Z,101200.11
2022-11-28T06:26:25.893Z,101202.20
2022-11-28T06:31:30.862Z,101195.83
2022-11-28T06:36:35.254Z,101199.77
2022-11-28T06:41:38.006Z,101196.61
2022-11-28T06:46:41.447Z,101212.99
2022-11-28T06:51:45.836Z,101211.93
2022-11-28T06:56:48.941Z,101205.05
2022-11-28T07:01:51.798Z,101204.59
2022-11-28T07:06:54.785Z,101210.77
2022-11-28T07:11:57.718Z,101218.20
2022-11-28T07:17:01.511Z,101210.90
2022-11-28T07:22:04.493Z,101211.50
2022-11-28T07:27:07.347Z,101215.28
2022-11-28T07:32:10.621Z,101211.34
2022-11-28T07:37:13.395Z,101210.09
2022-11-28T07:42:16.268Z,101216.20
2022-11-28T07:47:19.030Z,101218.45
2022-11-28T07:52:21.816Z,101210.23
2022-11-28T07:57:24.630Z,101205.63
2022-11-28T08:02:32.340Z,101204.48
2022-11-28T08:07:35.703Z,101200.55
2022-11-28T08:12:38.668Z,101201.80
2022-11-28T08:17:41.577Z,101197.61
2022-11-28T08:22:44.399Z,101197.39
2022-11-28T08:27:47.268Z,101199.73
2022-11-28T08:32:51.106Z,101199.42
2022-11-28T08:37:56.545Z,101198.74
2022-11-28T08:43:03.587Z,101202.34
2022-11-28T08:48:07.317Z,101203.96
2022-11-28T08:53:10.331Z,101196.26
2022-11-28T08:58:13.679Z,101190.17
2022-11-28T09:03:18.879Z,101191.96
2022-11-28T09:08:22.474Z,101194.98
2022-11-28T09:13:25.427Z,101189.36
2022-11-28T09:18:28.702Z,101188.45
2022-11-28T09:23:31.909Z,101192.10
2022-11-28T09:28:35.163Z,101193.55
2022-11-28T09:33:38.833Z,101191.77
2022-11-28T09:38:41.877Z,101189.08
2022-11-28T09:43:45.450Z,101192.73
2022-11-28T09:48:53.325Z,101189.80
2022-11-28T09:54:17.525Z,101184.41
2022-11-28T09:59:27.007Z,101183.92
2022-11-28T10:04:54.355Z,101183.45
2022-11-28T10:10:17.060Z,101174.85
2022-11-28T10:15:29.767Z,101169.90
2022-11-28T10:20:43.528Z,101165.27
2022-11-28T10:26:05.025Z,101163.39
2022-11-28T10:31:19.423Z,101159.77
2022-11-28T10:36:31.041Z,101156.98
2022-11-28T10:41:39.100Z,101151.27
2022-11-28T10:47:01.120Z,101154.40
2022-11-28T10:52:09.184Z,101152.48
2022-11-28T10:57:36.329Z,101148.48
2022-11-28T11:02:55.023Z,101151.26
2022-11-28T11:08:00.877Z,101142.91
2022-11-28T11:13:56.789Z,101142.20
2022-11-28T11:19:05.516Z,101137.01
2022-11-28T11:24:20.037Z,101139.27
2022-11-28T11:29:32.433Z,101140.30
2022-11-28T11:34:44.849Z,101142.23
2022-11-28T11:39:53.810Z,101140.17
2022-11-28T11:45:18.118Z,101133.23
2022-11-28T11:50:24.743Z,101138.09
2022-11-28T11:55:30.280Z,101135.31
2022-11-28T12:00:38.723Z,101131.66
2022-11-28T12:06:14.874Z,101134.11
2022-11-28T12:11:34.722Z,101135.84
2022-11-28T12:16:48.098Z,101136.02
2022-11-28T12:22:13.154Z,101147.30
2022-11-28T12:27:59.738Z,101140.17
2022-11-28T12:33:10.149Z,101140.36
2022-11-28T12:38:51.521Z,101138.44
2022-11-28T12:44:03.538Z,101141.20
2022-11-28T12:49:26.346Z,101131.11
2022-11-28T12:54:43.690Z,101125.89
2022-11-28T13:00:03.611Z,101128.33
2022-11-28T13:05:24.017Z,101126.92
2022-11-28T13:10:50.160Z,101126.73
2022-11-28T13:16:03.621Z,101128.30
2022-11-28T13:21:18.762Z,101124.67
2022-11-28T13:27:00.534Z,101122.76
2022-11-28T13:32:14.887Z,101121.52
2022-11-28T13:43:08.609Z,101121.17
2022-11-28T13:49:12.493Z,101125.52
2022-11-28T13:54:20.306Z,101118.23
2022-11-28T13:59:25.316Z,101119.90
2022-11-28T14:04:29.993Z,101121.70
2022-11-28T14:09:56.156Z,101117.25
2022-11-28T14:15:07.200Z,101113.63
2022-11-28T14:20:19.515Z,101108.62
2022-11-28T14:25:52.363Z,101104.73
2022-11-28T14:31:24.919Z,101099.66
2022-11-28T14:36:43.339Z,101104.46
2022-11-28T14:42:08.782Z,101107.68
2022-11-28T14:47:28.922Z,101110.05
2022-11-28T14:52:43.375Z,101112.83
2022-11-28T14:58:05.334Z,101109.07
2022-11-28T15:03:37.424Z,101113.09
2022-11-28T15:09:03.346Z,101107.39
2022-11-28T15:14:43.256Z,101107.95
2022-11-28T15:19:49.351Z,101109.02
2022-11-28T15:24:55.107Z,101117.16
2022-11-28T15:30:14.741Z,101118.01
2022-11-28T15:35:18.884Z,101117.83
2022-11-28T15:40:33.592Z,101122.66
2022-11-28T15:45:37.197Z,101116.23
2022-11-28T15:50:54.410Z,101114.27
2022-11-28T15:56:09.598Z,101110.63
2022-11-28T16:01:26.754Z,101109.91
2022-11-28T16:06:32.416Z,101109.37
2022-11-28T16:11:36.377Z,101109.34
2022-11-28T16:16:39.755Z,101109.90
2022-11-28T16:21:52.520Z,101105.95
2022-11-28T16:27:01.764Z,101108.19
2022-11-28T16:32:26.622Z,101111.11
2022-11-28T16:37:32.078Z,101107.52
2022-11-28T16:42:36.009Z,101102.88
2022-11-28T16:47:41.215Z,101102.52
2022-11-28T16:52:54.325Z,101109.63
2022-11-28T16:58:18.115Z,101110.86
2022-11-28T17:03:47.659Z,101106.39
2022-11-28T17:09:09.370Z,101107.08
2022-11-28T17:14:20.358Z,101109.46
2022-11-28T17:19:26.961Z,101114.31
2022-11-28T17:24:38.670Z,101105.86
2022-11-28T17:29:46.055Z,101103.45
2022-11-28T17:34:52.352Z,101104.29
2022-11-28T17:40:23.889Z,101104.12
2022-11-28T17:45:33.615Z,101098.61
2022-11-28T17:50:47.408Z,101098.69
2022-11-28T17:56:04.619Z,101093.34
2022-11-28T18:01:23.936Z,101093.52
2022-11-28T18:06:33.309Z,101099.56
2022-11-28T18:11:44.424Z,101099.61
2022-11-28T18:16:51.106Z,101104.11
2022-11-28T18:21:59.758Z,101102.20
2022-11-28T18:27:08.434Z,101101.65
2022-11-28T18:32:16.722Z,101104.27
2022-11-28T18:37:24.933Z,101102.19
2022-11-28T18:42:29.488Z,101105.84
2022-11-28T18:47:38.034Z,101105.83
2022-11-28T18:52:44.564Z,101110.35
2022-11-28T18:57:54.428Z,101111.92
2022-11-28T19:03:02.451Z,101112.27
2022-11-28T19:08:10.297Z,101113.48
2022-11-28T19:13:14.095Z,101109.50
2022-11-28T19:18:25.620Z,101114.52
2022-11-28T19:23:31.516Z,101116.59
2022-11-28T19:28:39.176Z,101120.03
2022-11-28T19:33:45.005Z,101124.36
2022-11-28T19:38:50.488Z,101119.30
2022-11-28T19:44:01.363Z,101119.15
2022-11-28T19:49:22.276Z,101119.82
2022-11-28T19:54:29.853Z,101124.13
2022-11-28T19:59:35.881Z,101123.23
2022-11-28T20:04:45.631Z,101123.26
2022-11-28T20:09:49.925Z,101120.65
2022-11-28T20:14:59.239Z,101118.36
2022-11-28T20:20:09.003Z,101119.73
2022-11-28T20:25:21.153Z,101116.81
2022-11-28T20:30:27.040Z,101119.91
2022-11-28T20:35:34.251Z,101121.95
2022-11-28T20:40:39.323Z,101125.40
2022-11-28T20:45:46.588Z,101124.21
2022-11-28T20:50:59.614Z,101127.66
2022-11-28T20:56:08.561Z,101131.27
2022-11-28T21:01:24.840Z,101129.00
2022-11-28T21:06:30.798Z,101130.73
2022-11-28T21:11:56.319Z,101134.89
2022-11-28T21:17:02.816Z,101131.57
2022-11-28T21:22:12.735Z,101133.26
2022-11-28T21:27:20.809Z,101138.82
2022-11-28T21:32:27.232Z,101135.86
2022-11-28T21:37:36.610Z,101136.88
2022-11-28T21:42:41.496Z,101138.58
2022-11-28T21:47:45.115Z,101134.77
2022-11-28T21:52:48.718Z,101131.94
2022-11-28T21:57:51.656Z,101126.04
2022-11-28T22:03:02.856Z,101127.27
2022-11-28T22:08:12.933Z,101127.06
2022-11-28T22:13:25.764Z,101124.97
2022-11-28T22:18:37.087Z,101127.39
2022-11-28T22:23:44.413Z,101127.06
2022-11-28T22:28:53.580Z,101127.39
2022-11-28T22:34:05.270Z,101130.85
2022-11-28T22:39:11.574Z,101125.14
2022-11-28T22:44:18.614Z,101125.83
2022-11-28T22:49:26.488Z,101119.76
2022-11-28T22:54:33.144Z,101117.02
2022-11-28T22:59:43.120Z,101121.34
2022-11-28T23:04:58.661Z,101120.10
2022-11-28T23:10:16.939Z,101122.00
2022-11-28T23:15:23.550Z,101127.02
2022-11-28T23:20:30.579Z,101127.15
2022-11-28T23:25:47.305Z,101128.70
2022-11-28T23:30:57.729Z,101128.67
2022-11-28T23:36:24.689Z,101127.79
2022-11-28T23:41:33.083Z,101130.18
2022-11-28T23:46:45.616Z,101129.84
2022-11-28T23:51:50.342Z,101130.28
2022-11-28T23:56:59.543Z,101127.27
